This is the latest recevied weather packets stored in our database for station/object DB8NZ-11. If no packets are shown the sender has not sent any weather packets the latest 1 day(s).
| Time | Temp. | Humidity | Pressure | Rain* | Wind** | Luminosity | Snow |
|---|---|---|---|---|---|---|---|
| 1777726112 | 31.11° C | 17% | 1024.2 hPa | - | - | - | - |
| 1777725212 | 31.11° C | 18% | 1024.4 hPa | - | - | - | - |
| 1777724312 | 30.56° C | 18% | 1024.6 hPa | - | - | - | - |
| 1777723412 | 29.44° C | 19% | 1024.8 hPa | - | - | - | - |
| 1777722512 | 28.89° C | 22% | 1024.9 hPa | - | - | - | - |
| 1777721612 | 28.89° C | 22% | 1025.4 hPa | - | - | - | - |
| 1777720712 | 28.89° C | 21% | 1025.6 hPa | - | - | - | - |
| 1777719812 | 28.89° C | 22% | 1025.7 hPa | - | - | - | - |
| 1777718912 | 29.44° C | 22% | 1025.9 hPa | - | - | - | - |
| 1777718011 | 28.33° C | 22% | 1026.2 hPa | - | - | - | - |
| 1777717111 | 28.89° C | 21% | 1026.4 hPa | - | - | - | - |
| 1777716211 | 28.33° C | 24% | 1026.6 hPa | - | - | - | - |
| 1777715311 | 28.89° C | 22% | 1026.8 hPa | - | - | - | - |
| 1777714411 | 29.44° C | 23% | 1026.9 hPa | - | - | - | - |
| 1777713511 | 28.89° C | 25% | 1027.1 hPa | - | - | - | - |
| 1777712611 | 28.33° C | 24% | 1027.1 hPa | - | - | - | - |
| 1777711711 | 28.33° C | 25% | 1027.3 hPa | - | - | - | - |
| 1777710811 | 28.33° C | 24% | 1027.4 hPa | - | - | - | - |
| 1777709910 | 27.78° C | 25% | 1027.4 hPa | - | - | - | - |
| 1777709010 | 28.89° C | 24% | 1027.7 hPa | - | - | - | - |
| 1777708110 | 28.89° C | 23% | 1027.8 hPa | - | - | - | - |
| 1777707210 | 27.78° C | 26% | 1027.9 hPa | - | - | - | - |
| 1777706310 | 22.22° C | 35% | 1028 hPa | - | - | - | - |
| 1777705410 | 15.56° C | 49% | 1028.3 hPa | - | - | - | - |
| 1777704510 | 13.89° C | 57% | 1028.4 hPa | - | - | - | - |
* Rain since midnight (hover to see other rain measurements)
** Current wind speed in m/s (hover to see current wind gust speed)